sensor_id;sensor_type;location;lat;lon;timestamp;pressure;altitude;pressure_sealevel;temperature;humidity
49949;BME280;35840;45.982;8.890;2023-06-10T00:00:29;98007.25;;;20.75;73.94
49949;BME280;35840;45.982;8.890;2023-06-10T00:02:58;97997.13;;;20.64;73.71
49949;BME280;35840;45.982;8.890;2023-06-10T00:05:26;98004.47;;;20.69;74.39
49949;BME280;35840;45.982;8.890;2023-06-10T00:07:56;98000.06;;;20.69;73.69
49949;BME280;35840;45.982;8.890;2023-06-10T00:10:24;98009.88;;;20.67;73.46
49949;BME280;35840;45.982;8.890;2023-06-10T00:12:51;98004.28;;;20.62;73.59
49949;BME280;35840;45.982;8.890;2023-06-10T00:15:18;98005.59;;;20.58;72.69
49949;BME280;35840;45.982;8.890;2023-06-10T00:17:45;98010.19;;;20.56;73.08
49949;BME280;35840;45.982;8.890;2023-06-10T00:20:12;98001.50;;;20.55;72.94
49949;BME280;35840;45.982;8.890;2023-06-10T00:22:39;98007.56;;;20.56;73.20
49949;BME280;35840;45.982;8.890;2023-06-10T00:25:09;98007.91;;;20.53;73.38
49949;BME280;35840;45.982;8.890;2023-06-10T00:27:36;98012.78;;;20.56;73.99
49949;BME280;35840;45.982;8.890;2023-06-10T00:30:04;98003.31;;;20.55;74.14
49949;BME280;35840;45.982;8.890;2023-06-10T00:32:34;98003.31;;;20.55;74.92
49949;BME280;35840;45.982;8.890;2023-06-10T00:35:02;98002.97;;;20.50;74.64
49949;BME280;35840;45.982;8.890;2023-06-10T00:37:30;98003.66;;;20.52;74.75
49949;BME280;35840;45.982;8.890;2023-06-10T00:39:59;98002.69;;;20.53;74.87
49949;BME280;35840;45.982;8.890;2023-06-10T00:42:26;97995.81;;;20.52;75.57
49949;BME280;35840;45.982;8.890;2023-06-10T00:44:56;97998.72;;;20.57;75.42
49949;BME280;35840;45.982;8.890;2023-06-10T00:47:23;97993.50;;;20.57;75.86
49949;BME280;35840;45.982;8.890;2023-06-10T00:49:52;97998.72;;;20.57;76.16
49949;BME280;35840;45.982;8.890;2023-06-10T00:52:19;97992.88;;;20.55;76.38
49949;BME280;35840;45.982;8.890;2023-06-10T00:54:47;97954.38;;;20.40;76.60
49949;BME280;35840;45.982;8.890;2023-06-10T00:57:14;97985.66;;;20.57;77.21
49949;BME280;35840;45.982;8.890;2023-06-10T00:59:43;97990.25;;;20.63;77.27
49949;BME280;35840;45.982;8.890;2023-06-10T01:02:13;97978.97;;;20.62;77.55
49949;BME280;35840;45.982;8.890;2023-06-10T01:04:40;97982.75;;;20.68;76.97
49949;BME280;35840;45.982;8.890;2023-06-10T01:15:01;97987.31;;;20.50;77.25
49949;BME280;35840;45.982;8.890;2023-06-10T01:17:28;97982.44;;;20.46;76.82
49949;BME280;35840;45.982;8.890;2023-06-10T01:19:57;97984.06;;;20.47;76.99
49949;BME280;35840;45.982;8.890;2023-06-10T01:22:25;97983.56;;;20.44;76.64
49949;BME280;35840;45.982;8.890;2023-06-10T01:24:55;97987.47;;;20.48;76.14
49949;BME280;35840;45.982;8.890;2023-06-10T01:27:30;97989.47;;;20.46;75.98
49949;BME280;35840;45.982;8.890;2023-06-10T01:30:04;97988.31;;;20.40;75.82
49949;BME280;35840;45.982;8.890;2023-06-10T01:32:37;97993.03;;;20.37;75.17
49949;BME280;35840;45.982;8.890;2023-06-10T01:35:08;97984.88;;;20.40;74.48
49949;BME280;35840;45.982;8.890;2023-06-10T01:37:38;97989.47;;;20.38;74.61
49949;BME280;35840;45.982;8.890;2023-06-10T01:40:07;97998.44;;;20.43;74.46
49949;BME280;35840;45.982;8.890;2023-06-10T01:42:35;97989.13;;;20.41;74.58
49949;BME280;35840;45.982;8.890;2023-06-10T01:45:02;97999.91;;;20.38;74.91
49949;BME280;35840;45.982;8.890;2023-06-10T01:47:29;97991.91;;;20.39;74.49
49949;BME280;35840;45.982;8.890;2023-06-10T01:49:56;97994.84;;;20.36;74.89
49949;BME280;35840;45.982;8.890;2023-06-10T01:52:22;98002.69;;;20.36;75.35
49949;BME280;35840;45.982;8.890;2023-06-10T01:54:49;97994.69;;;20.38;75.39
49949;BME280;35840;45.982;8.890;2023-06-10T01:57:16;97990.94;;;20.32;75.50
49949;BME280;35840;45.982;8.890;2023-06-10T01:59:43;97995.34;;;20.32;75.41
49949;BME280;35840;45.982;8.890;2023-06-10T02:02:11;97986.69;;;20.31;75.54
49949;BME280;35840;45.982;8.890;2023-06-10T02:04:38;97990.44;;;20.28;75.72
49949;BME280;35840;45.982;8.890;2023-06-10T02:07:05;97988.66;;;20.29;75.68
49949;BME280;35840;45.982;8.890;2023-06-10T02:09:32;97990.44;;;20.28;74.87
49949;BME280;35840;45.982;8.890;2023-06-10T02:12:04;97982.13;;;20.25;74.15
49949;BME280;35840;45.982;8.890;2023-06-10T02:14:33;97996.66;;;20.27;74.65
49949;BME280;35840;45.982;8.890;2023-06-10T02:17:00;97982.13;;;20.25;74.68
49949;BME280;35840;45.982;8.890;2023-06-10T02:19:27;97984.22;;;20.21;74.75
49949;BME280;35840;45.982;8.890;2023-06-10T02:21:54;97988.66;;;20.29;74.67
49949;BME280;35840;45.982;8.890;2023-06-10T02:24:21;97985.41;;;20.19;75.44
49949;BME280;35840;45.982;8.890;2023-06-10T02:26:48;97985.41;;;20.19;75.35
49949;BME280;35840;45.982;8.890;2023-06-10T02:29:15;97989.47;;;20.13;75.92
49949;BME280;35840;45.982;8.890;2023-06-10T02:31:42;97990.28;;;20.13;75.91
49949;BME280;35840;45.982;8.890;2023-06-10T02:34:09;97991.59;;;20.18;75.70
49949;BME280;35840;45.982;8.890;2023-06-10T02:36:36;97993.69;;;20.14;75.59
49949;BME280;35840;45.982;8.890;2023-06-10T02:39:03;97978.38;;;20.03;76.38
49949;BME280;35840;45.982;8.890;2023-06-10T02:41:32;97988.34;;;20.07;76.41
49949;BME280;35840;45.982;8.890;2023-06-10T02:44:00;97985.06;;;20.05;76.57
49949;BME280;35840;45.982;8.890;2023-06-10T02:46:27;97976.59;;;20.03;76.59
49949;BME280;35840;45.982;8.890;2023-06-10T02:48:55;97984.59;;;20.02;75.77
49949;BME280;35840;45.982;8.890;2023-06-10T02:51:24;97952.13;;;19.88;75.99
49949;BME280;35840;45.982;8.890;2023-06-10T02:53:56;97966.31;;;20.02;76.61
49949;BME280;35840;45.982;8.890;2023-06-10T02:56:23;97969.41;;;20.05;77.24
49949;BME280;35840;45.982;8.890;2023-06-10T02:58:50;97972.00;;;20.05;77.25
49949;BME280;35840;45.982;8.890;2023-06-10T03:01:20;97958.97;;;20.05;77.78
49949;BME280;35840;45.982;8.890;2023-06-10T03:03:57;97965.16;;;20.12;77.51
49949;BME280;35840;45.982;8.890;2023-06-10T03:06:25;97966.00;;;20.13;78.08
49949;BME280;35840;45.982;8.890;2023-06-10T03:09:01;97953.06;;;20.11;78.60
49949;BME280;35840;45.982;8.890;2023-06-10T03:11:28;97951.81;;;20.07;78.01
49949;BME280;35840;45.982;8.890;2023-06-10T03:13:55;97952.28;;;20.03;77.94
49949;BME280;35840;45.982;8.890;2023-06-10T03:16:23;97958.47;;;20.10;76.93
49949;BME280;35840;45.982;8.890;2023-06-10T03:18:51;97951.81;;;20.07;77.03
49949;BME280;35840;45.982;8.890;2023-06-10T03:21:18;97948.34;;;20.07;77.70
49949;BME280;35840;45.982;8.890;2023-06-10T03:23:46;97951.94;;;20.14;75.85
49949;BME280;35840;45.982;8.890;2023-06-10T03:26:13;97960.25;;;20.09;75.41
49949;BME280;35840;45.982;8.890;2023-06-10T03:28:44;97954.25;;;20.09;74.56
49949;BME280;35840;45.982;8.890;2023-06-10T03:31:11;97959.13;;;20.12;73.62
49949;BME280;35840;45.982;8.890;2023-06-10T03:33:37;97956.84;;;20.09;73.83
49949;BME280;35840;45.982;8.890;2023-06-10T03:36:05;97951.28;;;20.04;74.15
49949;BME280;35840;45.982;8.890;2023-06-10T03:38:33;97955.22;;;20.00;74.61
49949;BME280;35840;45.982;8.890;2023-06-10T03:41:00;97955.19;;;19.91;75.06
49949;BME280;35840;45.982;8.890;2023-06-10T03:43:27;97956.34;;;19.89;74.18
49949;BME280;35840;45.982;8.890;2023-06-10T03:45:54;97952.28;;;19.86;74.09
49949;BME280;35840;45.982;8.890;2023-06-10T03:48:21;97953.72;;;19.89;74.07
49949;BME280;35840;45.982;8.890;2023-06-10T03:50:51;97959.28;;;19.94;74.73
49949;BME280;35840;45.982;8.890;2023-06-10T03:53:19;97955.38;;;19.90;75.25
49949;BME280;35840;45.982;8.890;2023-06-10T03:55:46;97958.31;;;19.87;75.73
49949;BME280;35840;45.982;8.890;2023-06-10T03:58:15;97964.50;;;19.86;75.75
49949;BME280;35840;45.982;8.890;2023-06-10T04:00:45;97969.25;;;19.90;74.99
49949;BME280;35840;45.982;8.890;2023-06-10T04:03:12;97958.81;;;19.90;74.68
49949;BME280;35840;45.982;8.890;2023-06-10T04:05:45;97949.63;;;19.78;74.94
49949;BME280;35840;45.982;8.890;2023-06-10T04:08:12;97965.50;;;19.85;74.93
49949;BME280;35840;45.982;8.890;2023-06-10T04:10:38;97956.81;;;19.84;75.02
49949;BME280;35840;45.982;8.890;2023-06-10T04:13:05;97953.91;;;19.79;75.60
49949;BME280;35840;45.982;8.890;2023-06-10T04:15:38;97958.97;;;19.81;75.87
49949;BME280;35840;45.982;8.890;2023-06-10T04:18:09;97956.34;;;19.89;75.32
49949;BME280;35840;45.982;8.890;2023-06-10T04:20:36;97955.84;;;19.85;75.70
49949;BME280;35840;45.982;8.890;2023-06-10T04:23:02;97943.59;;;19.69;75.72
49949;BME280;35840;45.982;8.890;2023-06-10T04:25:30;97934.94;;;19.69;74.97
49949;BME280;35840;45.982;8.890;2023-06-10T04:27:57;97960.72;;;19.80;75.63
49949;BME280;35840;45.982;8.890;2023-06-10T04:30:24;97955.53;;;19.80;76.15
49949;BME280;35840;45.982;8.890;2023-06-10T04:32:51;97953.91;;;19.79;76.60
49949;BME280;35840;45.982;8.890;2023-06-10T04:35:19;97953.91;;;19.79;76.71
49949;BME280;35840;45.982;8.890;2023-06-10T04:37:47;97952.25;;;19.78;76.85
49949;BME280;35840;45.982;8.890;2023-06-10T04:40:14;97948.19;;;19.84;77.37
49949;BME280;35840;45.982;8.890;2023-06-10T04:42:43;97947.88;;;19.87;78.08
49949;BME280;35840;45.982;8.890;2023-06-10T04:45:10;97955.69;;;19.87;77.84
49949;BME280;35840;45.982;8.890;2023-06-10T04:47:37;97955.84;;;19.85;77.96
49949;BME280;35840;45.982;8.890;2023-06-10T04:50:05;97944.41;;;19.78;77.66
49949;BME280;35840;45.982;8.890;2023-06-10T04:52:32;97957.00;;;19.83;77.87
49949;BME280;35840;45.982;8.890;2023-06-10T04:55:00;97956.66;;;19.86;77.96
49949;BME280;35840;45.982;8.890;2023-06-10T04:57:27;97956.19;;;19.82;78.92
49949;BME280;35840;45.982;8.890;2023-06-10T04:59:54;97959.28;;;19.86;79.25
49949;BME280;35840;45.982;8.890;2023-06-10T05:02:20;97959.28;;;19.86;79.05
49949;BME280;35840;45.982;8.890;2023-06-10T05:04:47;97957.66;;;19.85;78.92
49949;BME280;35840;45.982;8.890;2023-06-10T05:07:14;97953.72;;;19.89;79.30
49949;BME280;35840;45.982;8.890;2023-06-10T05:09:41;97956.19;;;19.90;79.23
49949;BME280;35840;45.982;8.890;2023-06-10T05:12:08;97955.03;;;19.93;77.78
49949;BME280;35840;45.982;8.890;2023-06-10T05:14:35;97952.94;;;19.97;78.34
49949;BME280;35840;45.982;8.890;2023-06-10T05:17:02;97958.78;;;19.99;78.90
49949;BME280;35840;45.982;8.890;2023-06-10T05:19:29;97957.97;;;19.98;78.35
49949;BME280;35840;45.982;8.890;2023-06-10T05:21:55;97958.50;;;20.02;77.01
49949;BME280;35840;45.982;8.890;2023-06-10T05:24:22;97952.59;;;20.00;76.53
49949;BME280;35840;45.982;8.890;2023-06-10T05:26:49;97955.72;;;20.03;75.71
49949;BME280;35840;45.982;8.890;2023-06-10T05:29:16;97953.41;;;20.08;74.95
49949;BME280;35840;45.982;8.890;2023-06-10T05:31:43;97956.34;;;20.05;75.16
49949;BME280;35840;45.982;8.890;2023-06-10T05:34:10;97950.16;;;19.98;75.19
49949;BME280;35840;45.982;8.890;2023-06-10T05:36:37;97948.84;;;19.94;75.65
49949;BME280;35840;45.982;8.890;2023-06-10T05:39:04;97954.56;;;19.98;76.08
49949;BME280;35840;45.982;8.890;2023-06-10T05:41:31;97963.84;;;20.00;75.37
49949;BME280;35840;45.982;8.890;2023-06-10T05:43:57;97953.28;;;20.02;75.30
49949;BME280;35840;45.982;8.890;2023-06-10T05:46:24;97954.72;;;19.96;75.58
49949;BME280;35840;45.982;8.890;2023-06-10T05:48:51;97958.78;;;19.99;75.83
49949;BME280;35840;45.982;8.890;2023-06-10T05:51:18;97959.75;;;20.06;78.39
49949;BME280;35840;45.982;8.890;2023-06-10T05:53:44;97962.72;;;20.03;77.78
49949;BME280;35840;45.982;8.890;2023-06-10T05:56:14;97962.25;;;20.07;78.82
49949;BME280;35840;45.982;8.890;2023-06-10T05:58:41;97955.38;;;20.06;79.13
49949;BME280;35840;45.982;8.890;2023-06-10T06:01:08;97963.50;;;20.11;80.63
49949;BME280;35840;45.982;8.890;2023-06-10T06:03:35;97963.84;;;20.08;80.19
49949;BME280;35840;45.982;8.890;2023-06-10T06:06:02;97962.88;;;20.01;80.78
49949;BME280;35840;45.982;8.890;2023-06-10T06:08:30;97970.88;;;20.08;81.06
49949;BME280;35840;45.982;8.890;2023-06-10T06:10:57;97968.75;;;20.11;81.82
49949;BME280;35840;45.982;8.890;2023-06-10T06:13:23;97966.63;;;20.07;82.01
49949;BME280;35840;45.982;8.890;2023-06-10T06:15:50;97963.19;;;19.98;82.58
49949;BME280;35840;45.982;8.890;2023-06-10T06:18:17;97962.56;;;19.96;82.56
49949;BME280;35840;45.982;8.890;2023-06-10T06:20:45;97970.69;;;20.01;83.35
49949;BME280;35840;45.982;8.890;2023-06-10T06:23:12;97976.25;;;20.06;84.82
49949;BME280;35840;45.982;8.890;2023-06-10T06:25:38;97970.19;;;20.06;83.89
49949;BME280;35840;45.982;8.890;2023-06-10T06:28:06;97971.03;;;20.06;83.75
49949;BME280;35840;45.982;8.890;2023-06-10T06:30:34;97970.38;;;20.04;83.58
49949;BME280;35840;45.982;8.890;2023-06-10T06:33:01;97976.44;;;20.05;83.04
49949;BME280;35840;45.982;8.890;2023-06-10T06:35:30;97973.31;;;20.01;82.64
49949;BME280;35840;45.982;8.890;2023-06-10T06:37:58;97984.72;;;20.00;82.35
49949;BME280;35840;45.982;8.890;2023-06-10T06:40:27;97980.00;;;20.04;83.54
49949;BME280;35840;45.982;8.890;2023-06-10T06:42:54;97983.41;;;20.04;83.34
49949;BME280;35840;45.982;8.890;2023-06-10T06:45:37;97974.28;;;20.08;83.91
49949;BME280;35840;45.982;8.890;2023-06-10T06:48:05;97968.25;;;20.08;84.20
49949;BME280;35840;45.982;8.890;2023-06-10T06:50:32;97970.53;;;20.11;84.28
49949;BME280;35840;45.982;8.890;2023-06-10T06:52:59;97980.47;;;20.16;83.49
49949;BME280;35840;45.982;8.890;2023-06-10T06:55:26;97987.50;;;20.15;82.39
49949;BME280;35840;45.982;8.890;2023-06-10T06:57:52;97981.78;;;20.11;82.39
49949;BME280;35840;45.982;8.890;2023-06-10T07:00:19;97988.47;;;20.14;83.10
49949;BME280;35840;45.982;8.890;2023-06-10T07:02:46;97983.94;;;20.16;82.82
49949;BME280;35840;45.982;8.890;2023-06-10T07:05:14;97982.94;;;20.17;83.29
49949;BME280;35840;45.982;8.890;2023-06-10T07:07:41;97985.41;;;20.19;82.46
49949;BME280;35840;45.982;8.890;2023-06-10T07:10:08;97973.31;;;20.18;82.76
49949;BME280;35840;45.982;8.890;2023-06-10T07:12:34;97985.41;;;20.19;82.77
49949;BME280;35840;45.982;8.890;2023-06-10T07:15:01;97981.78;;;20.20;82.97
49949;BME280;35840;45.982;8.890;2023-06-10T07:17:28;97987.34;;;20.17;83.15
49949;BME280;35840;45.982;8.890;2023-06-10T07:19:55;97993.22;;;20.10;82.14
49949;BME280;35840;45.982;8.890;2023-06-10T07:22:24;97989.94;;;20.08;81.74
49949;BME280;35840;45.982;8.890;2023-06-10T07:24:50;97982.78;;;20.10;82.13
49949;BME280;35840;45.982;8.890;2023-06-10T07:27:18;97965.66;;;20.00;82.21
49949;BME280;35840;45.982;8.890;2023-06-10T07:29:45;97980.50;;;20.07;82.49
49949;BME280;35840;45.982;8.890;2023-06-10T07:32:11;97985.41;;;20.10;81.98
49949;BME280;35840;45.982;8.890;2023-06-10T07:34:38;97988.81;;;20.11;81.88
49949;BME280;35840;45.982;8.890;2023-06-10T07:37:06;97977.06;;;20.15;81.61
49949;BME280;35840;45.982;8.890;2023-06-10T07:39:32;97981.16;;;20.09;80.92
49949;BME280;35840;45.982;8.890;2023-06-10T07:41:59;97980.19;;;20.10;80.98
49949;BME280;35840;45.982;8.890;2023-06-10T07:44:26;97977.41;;;20.12;81.16
49949;BME280;35840;45.982;8.890;2023-06-10T07:46:53;97981.16;;;20.18;81.72
49949;BME280;35840;45.982;8.890;2023-06-10T07:49:20;97971.69;;;20.25;81.58
49949;BME280;35840;45.982;8.890;2023-06-10T07:51:46;97973.50;;;20.24;82.46
49949;BME280;35840;45.982;8.890;2023-06-10T07:54:13;97975.94;;;20.26;82.59
49949;BME280;35840;45.982;8.890;2023-06-10T07:56:43;97981.97;;;20.26;82.05
49949;BME280;35840;45.982;8.890;2023-06-10T07:59:10;97977.25;;;20.30;81.57
49949;BME280;35840;45.982;8.890;2023-06-10T08:01:37;97974.94;;;20.35;81.38
49949;BME280;35840;45.982;8.890;2023-06-10T08:04:06;97977.38;;;20.45;81.34
49949;BME280;35840;45.982;8.890;2023-06-10T08:06:33;97967.59;;;20.39;79.92
49949;BME280;35840;45.982;8.890;2023-06-10T08:09:00;97964.47;;;20.43;79.62
49949;BME280;35840;45.982;8.890;2023-06-10T08:11:26;97962.19;;;20.49;81.00
49949;BME280;35840;45.982;8.890;2023-06-10T08:13:56;97969.53;;;20.53;82.59
49949;BME280;35840;45.982;8.890;2023-06-10T08:16:23;97958.75;;;20.48;81.85
49949;BME280;35840;45.982;8.890;2023-06-10T08:18:50;97966.75;;;20.63;81.97
49949;BME280;35840;45.982;8.890;2023-06-10T08:21:21;97962.50;;;20.62;82.53
49949;BME280;35840;45.982;8.890;2023-06-10T08:23:47;97966.09;;;20.69;82.44
49949;BME280;35840;45.982;8.890;2023-06-10T08:26:14;97967.72;;;20.70;79.24
49949;BME280;35840;45.982;8.890;2023-06-10T08:28:41;97966.91;;;20.61;79.88
49949;BME280;35840;45.982;8.890;2023-06-10T08:31:08;97955.34;;;20.56;80.29
49949;BME280;35840;45.982;8.890;2023-06-10T08:33:34;97966.75;;;20.63;81.84
49949;BME280;35840;45.982;8.890;2023-06-10T08:36:01;97965.47;;;20.67;82.17
49949;BME280;35840;45.982;8.890;2023-06-10T08:38:28;97961.03;;;20.68;82.45
49949;BME280;35840;45.982;8.890;2023-06-10T08:40:56;97970.31;;;20.78;83.60
49949;BME280;35840;45.982;8.890;2023-06-10T08:43:47;97960.50;;;20.80;83.11
49949;BME280;35840;45.982;8.890;2023-06-10T08:46:15;97962.50;;;20.78;82.86
49949;BME280;35840;45.982;8.890;2023-06-10T08:48:43;97974.41;;;20.81;81.73
49949;BME280;35840;45.982;8.890;2023-06-10T08:51:11;97963.78;;;20.83;82.83
49949;BME280;35840;45.982;8.890;2023-06-10T08:53:48;97971.63;;;20.83;82.79
49949;BME280;35840;45.982;8.890;2023-06-10T08:56:17;97966.06;;;20.86;81.41
49949;BME280;35840;45.982;8.890;2023-06-10T08:58:45;97964.75;;;20.90;78.35
49949;BME280;35840;45.982;8.890;2023-06-10T09:01:12;97967.53;;;20.88;78.37
49949;BME280;35840;45.982;8.890;2023-06-10T09:03:40;97977.94;;;20.96;79.36
49949;BME280;35840;45.982;8.890;2023-06-10T09:06:08;97961.28;;;20.97;79.15
49949;BME280;35840;45.982;8.890;2023-06-10T09:08:36;97960.47;;;20.97;79.29
49949;BME280;35840;45.982;8.890;2023-06-10T09:11:04;97973.03;;;21.02;79.10
49949;BME280;35840;45.982;8.890;2023-06-10T09:13:31;97966.31;;;20.99;80.53
49949;BME280;35840;45.982;8.890;2023-06-10T09:15:58;97964.38;;;21.01;79.54
49949;BME280;35840;45.982;8.890;2023-06-10T09:18:30;97965.34;;;21.00;81.55
49949;BME280;35840;45.982;8.890;2023-06-10T09:20:57;97965.69;;;20.97;80.48
49949;BME280;35840;45.982;8.890;2023-06-10T09:23:24;97964.06;;;20.96;80.68
49949;BME280;35840;45.982;8.890;2023-06-10T09:25:58;97962.75;;;21.00;80.13
49949;BME280;35840;45.982;8.890;2023-06-10T09:28:25;97952.59;;;21.05;79.47
49949;BME280;35840;45.982;8.890;2023-06-10T09:31:02;97959.13;;;21.09;81.16
49949;BME280;35840;45.982;8.890;2023-06-10T09:33:30;97961.22;;;21.14;80.26
49949;BME280;35840;45.982;8.890;2023-06-10T09:35:57;97958.13;;;21.10;80.04
49949;BME280;35840;45.982;8.890;2023-06-10T09:38:32;97963.84;;;21.14;78.57
49949;BME280;35840;45.982;8.890;2023-06-10T09:40:59;97958.94;;;21.11;78.33
49949;BME280;35840;45.982;8.890;2023-06-10T09:43:41;97965.44;;;21.15;78.44
49949;BME280;35840;45.982;8.890;2023-06-10T09:46:18;97959.72;;;21.20;78.97
49949;BME280;35840;45.982;8.890;2023-06-10T09:48:46;97958.41;;;21.24;79.27
49949;BME280;35840;45.982;8.890;2023-06-10T09:51:14;97960.00;;;21.25;79.44
49949;BME280;35840;45.982;8.890;2023-06-10T09:53:41;97963.28;;;21.27;79.14
49949;BME280;35840;45.982;8.890;2023-06-10T09:56:08;97953.09;;;21.32;78.74
49949;BME280;35840;45.982;8.890;2023-06-10T09:58:39;97955.84;;;21.39;78.03
49949;BME280;35840;45.982;8.890;2023-06-10T10:01:11;97957.94;;;21.43;77.71
49949;BME280;35840;45.982;8.890;2023-06-10T10:03:49;97948.16;;;21.45;77.18
49949;BME280;35840;45.982;8.890;2023-06-10T10:06:19;97958.59;;;21.54;78.98
49949;BME280;35840;45.982;8.890;2023-06-10T10:08:48;97969.84;;;21.54;77.38
49949;BME280;35840;45.982;8.890;2023-06-10T10:11:20;97954.97;;;21.55;79.44
49949;BME280;35840;45.982;8.890;2023-06-10T10:13:51;97957.09;;;21.59;74.95
49949;BME280;35840;45.982;8.890;2023-06-10T10:16:25;97963.94;;;21.60;74.85
49949;BME280;35840;45.982;8.890;2023-06-10T10:18:56;97953.94;;;21.64;76.87
49949;BME280;35840;45.982;8.890;2023-06-10T10:21:27;97949.34;;;21.66;74.38
49949;BME280;35840;45.982;8.890;2023-06-10T10:24:09;97959.41;;;21.77;73.84
49949;BME280;35840;45.982;8.890;2023-06-10T10:26:38;97945.34;;;21.78;76.35
49949;BME280;35840;45.982;8.890;2023-06-10T10:29:25;97953.13;;;21.87;76.21
49949;BME280;35840;45.982;8.890;2023-06-10T10:31:55;97940.75;;;21.80;74.42
49949;BME280;35840;45.982;8.890;2023-06-10T10:37:11;97932.56;;;21.83;72.09
49949;BME280;35840;45.982;8.890;2023-06-10T10:39:38;97943.88;;;21.99;74.36
49949;BME280;35840;45.982;8.890;2023-06-10T10:42:06;97937.31;;;22.03;73.70
49949;BME280;35840;45.982;8.890;2023-06-10T10:44:39;97938.91;;;22.04;71.59
49949;BME280;35840;45.982;8.890;2023-06-10T10:47:08;97935.44;;;22.12;75.70
49949;BME280;35840;45.982;8.890;2023-06-10T10:49:37;97934.59;;;22.11;72.55
49949;BME280;35840;45.982;8.890;2023-06-10T10:52:04;97928.66;;;22.17;74.66
49949;BME280;35840;45.982;8.890;2023-06-10T10:54:43;97925.50;;;22.22;75.38
49949;BME280;35840;45.982;8.890;2023-06-10T10:57:21;97927.88;;;22.32;74.46
49949;BME280;35840;45.982;8.890;2023-06-10T11:02:16;97917.00;;;22.43;73.66
49949;BME280;35840;45.982;8.890;2023-06-10T11:04:46;97912.56;;;22.59;73.76
49949;BME280;35840;45.982;8.890;2023-06-10T11:07:14;97921.22;;;22.89;75.03
49949;BME280;35840;45.982;8.890;2023-06-10T11:10:10;97913.53;;;23.02;74.26
49949;BME280;35840;45.982;8.890;2023-06-10T11:12:53;97923.47;;;23.07;73.62
49949;BME280;35840;45.982;8.890;2023-06-10T11:15:28;97913.13;;;23.20;74.51
49949;BME280;35840;45.982;8.890;2023-06-10T11:18:13;97908.44;;;23.31;73.51
49949;BME280;35840;45.982;8.890;2023-06-10T11:26:21;97897.88;;;23.46;73.37
49949;BME280;35840;45.982;8.890;2023-06-10T11:29:03;97901.56;;;23.51;70.71
49949;BME280;35840;45.982;8.890;2023-06-10T11:31:31;97904.44;;;23.57;69.14
49949;BME280;35840;45.982;8.890;2023-06-10T11:34:01;97895.81;;;23.63;67.47
49949;BME280;35840;45.982;8.890;2023-06-10T11:36:29;97903.16;;;23.67;66.94
49949;BME280;35840;45.982;8.890;2023-06-10T11:39:01;97891.88;;;23.73;67.35
49949;BME280;35840;45.982;8.890;2023-06-10T11:41:29;97897.56;;;23.77;69.65
49949;BME280;35840;45.982;8.890;2023-06-10T11:44:02;97898.59;;;23.83;68.53
49949;BME280;35840;45.982;8.890;2023-06-10T11:46:29;97897.25;;;23.87;69.50
49949;BME280;35840;45.982;8.890;2023-06-10T11:48:57;97893.44;;;23.89;67.41
49949;BME280;35840;45.982;8.890;2023-06-10T11:51:26;97890.50;;;23.99;66.32
49949;BME280;35840;45.982;8.890;2023-06-10T11:53:54;97892.78;;;24.09;65.56
49949;BME280;35840;45.982;8.890;2023-06-10T11:56:26;97881.75;;;24.20;65.78
49949;BME280;35840;45.982;8.890;2023-06-10T11:59:01;97881.75;;;24.20;66.42
49949;BME280;35840;45.982;8.890;2023-06-10T12:01:34;97879.75;;;24.22;62.76
49949;BME280;35840;45.982;8.890;2023-06-10T12:04:05;97882.22;;;24.31;68.78
49949;BME280;35840;45.982;8.890;2023-06-10T12:06:46;97886.88;;;24.29;66.71
49949;BME280;35840;45.982;8.890;2023-06-10T12:09:28;97872.94;;;24.35;66.16
49949;BME280;35840;45.982;8.890;2023-06-10T12:14:51;97869.13;;;24.37;66.15
49949;BME280;35840;45.982;8.890;2023-06-10T12:19:51;97858.69;;;24.51;64.73
49949;BME280;35840;45.982;8.890;2023-06-10T12:22:18;97862.97;;;24.58;64.63
49949;BME280;35840;45.982;8.890;2023-06-10T12:25:04;97860.19;;;24.60;63.86
49949;BME280;35840;45.982;8.890;2023-06-10T12:27:32;97851.31;;;24.68;63.81
49949;BME280;35840;45.982;8.890;2023-06-10T12:30:05;97851.34;;;24.74;64.28
49949;BME280;35840;45.982;8.890;2023-06-10T12:32:45;97848.34;;;24.84;63.83
49949;BME280;35840;45.982;8.890;2023-06-10T12:35:15;97853.00;;;24.89;63.74
49949;BME280;35840;45.982;8.890;2023-06-10T12:37:58;97850.19;;;24.84;65.59
49949;BME280;35840;45.982;8.890;2023-06-10T12:40:28;97849.22;;;24.98;67.31
49949;BME280;35840;45.982;8.890;2023-06-10T12:42:55;97854.66;;;24.97;64.44
49949;BME280;35840;45.982;8.890;2023-06-10T12:45:31;97842.91;;;24.92;61.88
49949;BME280;35840;45.982;8.890;2023-06-10T12:48:06;97847.41;;;25.05;62.65
49949;BME280;35840;45.982;8.890;2023-06-10T12:50:36;97836.81;;;24.92;62.26
49949;BME280;35840;45.982;8.890;2023-06-10T12:53:06;97839.09;;;24.95;64.14
49949;BME280;35840;45.982;8.890;2023-06-10T12:55:34;97840.88;;;24.88;61.15
49949;BME280;35840;45.982;8.890;2023-06-10T12:58:01;97839.66;;;24.84;62.94
49949;BME280;35840;45.982;8.890;2023-06-10T13:00:28;97837.63;;;24.86;63.97
49949;BME280;35840;45.982;8.890;2023-06-10T13:02:59;97835.19;;;24.84;64.64
49949;BME280;35840;45.982;8.890;2023-06-10T13:05:27;97838.22;;;24.81;63.26
49949;BME280;35840;45.982;8.890;2023-06-10T13:07:54;97835.63;;;24.88;64.16
49949;BME280;35840;45.982;8.890;2023-06-10T13:10:21;97831.56;;;24.92;63.78
49949;BME280;35840;45.982;8.890;2023-06-10T13:12:52;97826.31;;;24.92;64.27
49949;BME280;35840;45.982;8.890;2023-06-10T13:15:19;97823.09;;;24.90;64.48
49949;BME280;35840;45.982;8.890;2023-06-10T13:17:46;97831.19;;;25.02;64.97
49949;BME280;35840;45.982;8.890;2023-06-10T13:20:17;97822.72;;;25.06;62.49
49949;BME280;35840;45.982;8.890;2023-06-10T13:22:44;97810.59;;;25.12;64.96
49949;BME280;35840;45.982;8.890;2023-06-10T13:25:11;97808.34;;;25.09;65.23
49949;BME280;35840;45.982;8.890;2023-06-10T13:27:38;97803.50;;;25.13;62.94
49949;BME280;35840;45.982;8.890;2023-06-10T13:30:07;97820.13;;;25.26;62.12
49949;BME280;35840;45.982;8.890;2023-06-10T13:32:34;97813.84;;;25.27;59.99